Moran, Iowa
Current Conditions -  °F | °C
As of 10:15 AM on Wednesday 28 Jan 2015 (Local Time) from KBNW Reporting Station
Haze Haze  
Wind Chill: 20°   Ceiling: 600
Heat Index: 32°   Visibility: 3mi
Dew Point: 32°   Wind: 20mph
Humidity: 100%   Direction: 140°SE
Pressure: 29.89"   Gusts: 26mph
Location:  41.8164°N, 93.8864°W
Report Text: KBNW 281615Z AUTO 14017G23KT 3SM BR OVC006 M00/M00 A2989 RMK AO2
Loading
Personal Weather Stations






























Interactive Weather Map New forecast layout! Learn more

10-Day Weather Forecast

Advertisements
Track Severe Weather on mobile